createdAt,value
2023-03-07T00:00:10.000Z,4.2
2023-03-07T00:02:12.670Z,5.8
2023-03-07T00:06:15.304Z,2.4
2023-03-07T00:08:16.650Z,5.3
2023-03-07T00:18:26.543Z,6.8
2023-03-07T00:28:33.166Z,6.2
2023-03-07T00:42:45.759Z,6.6
2023-03-07T00:44:50.420Z,8.8
2023-03-07T00:46:51.749Z,9.4
2023-03-07T00:48:53.052Z,7.1
2023-03-07T00:49:55.381Z,3.8
2023-03-07T00:51:56.712Z,1.4
2023-03-07T00:53:58.063Z,7.6
2023-03-07T00:55:59.332Z,8.3
2023-03-07T00:58:03.994Z,8.2
2023-03-07T01:00:05.308Z,4.6
2023-03-07T01:02:06.653Z,4.8
2023-03-07T01:04:08.033Z,1.3
2023-03-07T01:06:09.299Z,3.2
2023-03-07T01:14:17.900Z,5.5
2023-03-07T01:16:19.256Z,6.7
2023-03-07T01:20:21.861Z,6.7
2023-03-07T01:22:23.229Z,6.6
2023-03-07T01:26:29.357Z,6.2
2023-03-07T01:28:30.696Z,4.1
2023-03-07T01:36:36.070Z,4.4
2023-03-07T01:38:37.363Z,6.3
2023-03-07T01:40:42.070Z,3.4
2023-03-07T01:42:43.393Z,3.1
2023-03-07T01:44:44.729Z,3.1
2023-03-07T01:47:13.740Z,1.8
2023-03-07T01:49:15.094Z,3
2023-03-07T01:51:16.407Z,3.2
2023-03-07T01:53:21.037Z,3.4
2023-03-07T01:55:22.379Z,1.8
2023-03-07T01:57:23.734Z,2.3
2023-03-07T01:59:25.042Z,0.2
2023-03-07T02:01:26.419Z,4.1
2023-03-07T02:03:27.706Z,2.8
2023-03-07T02:05:29.022Z,3.2
2023-03-07T02:07:33.635Z,2.4
2023-03-07T02:09:34.979Z,3.7
2023-03-07T02:11:36.279Z,1.7
2023-03-07T02:13:37.589Z,4.1
2023-03-07T02:15:38.959Z,2.7
2023-03-07T02:17:40.261Z,3.9
2023-03-07T02:19:41.658Z,3.2
2023-03-07T02:21:46.288Z,2.2
2023-03-07T02:23:47.624Z,2.7
2023-03-07T02:25:48.956Z,2.1
2023-03-07T02:29:51.598Z,1.5
2023-03-07T02:31:52.926Z,4.3
2023-03-07T02:33:54.240Z,1.3
2023-03-07T02:40:01.502Z,3.6
2023-03-07T02:41:03.824Z,1.8
2023-03-07T02:43:05.159Z,2
2023-03-07T02:45:06.542Z,2
2023-03-07T02:47:07.872Z,1.5
2023-03-07T02:49:12.499Z,3.6
2023-03-07T02:51:13.820Z,1.1
2023-03-07T02:53:15.152Z,2.4
2023-03-07T02:55:16.527Z,2.2
2023-03-07T02:57:17.854Z,1
2023-03-07T02:59:19.183Z,3
2023-03-07T03:01:20.547Z,1.7
2023-03-07T03:03:25.143Z,2.7
2023-03-07T03:05:26.438Z,1.3
2023-03-07T03:07:27.744Z,0.8
2023-03-07T03:09:29.076Z,1.5
2023-03-07T03:11:30.351Z,1.8
2023-03-07T03:13:31.678Z,1.9
2023-03-07T03:15:33.026Z,1.9
2023-03-07T03:17:37.642Z,1.4
2023-03-07T03:19:38.944Z,2.7
2023-03-07T03:21:40.256Z,0.9
2023-03-07T03:23:41.562Z,2
2023-03-07T03:25:42.859Z,3.4
2023-03-07T03:27:44.193Z,2.2
2023-03-07T03:29:45.532Z,1.6
2023-03-07T03:31:50.133Z,2.5
2023-03-07T03:33:51.452Z,3.2
2023-03-07T03:35:52.826Z,3.6
2023-03-07T03:36:55.076Z,1.9
2023-03-07T03:38:57.916Z,2.5
2023-03-07T03:40:59.191Z,2.1
2023-03-07T03:43:00.499Z,2.1
2023-03-07T03:55:11.747Z,2.7
2023-03-07T03:57:13.042Z,3.9
2023-03-07T04:05:21.590Z,2.3
2023-03-07T04:07:22.877Z,1.1
2023-03-07T04:09:24.188Z,3.7
2023-03-07T04:11:25.501Z,2.6
2023-03-07T04:13:30.111Z,3.2
2023-03-07T04:15:31.413Z,4
2023-03-07T04:17:32.754Z,1.9
2023-03-07T04:19:34.024Z,2.8
2023-03-07T04:21:35.327Z,2.2
2023-03-07T04:23:36.633Z,3.3
2023-03-07T04:25:37.991Z,2.1
2023-03-07T04:27:42.674Z,2.7
2023-03-07T04:29:43.988Z,4.5
2023-03-07T04:31:45.362Z,4.1
2023-03-07T04:32:47.602Z,3
2023-03-07T04:34:48.947Z,3.7
2023-03-07T04:36:50.247Z,2.8
2023-03-07T04:38:51.578Z,2.8
2023-03-07T04:40:56.194Z,3.6
2023-03-07T04:42:57.518Z,2.3
2023-03-07T04:44:58.833Z,3.9
2023-03-07T04:47:00.167Z,1.6
2023-03-07T04:49:01.470Z,2.9
2023-03-07T04:51:02.786Z,3
2023-03-07T04:53:04.108Z,1.9
2023-03-07T04:55:08.734Z,2.5
2023-03-07T04:57:10.043Z,1.7
2023-03-07T04:59:11.364Z,3.2
2023-03-07T05:01:12.728Z,2.3
2023-03-07T05:03:14.034Z,3
2023-03-07T05:05:15.424Z,3.2
2023-03-07T05:09:21.469Z,2.7
2023-03-07T05:13:24.134Z,1.6
2023-03-07T05:15:25.430Z,2.4
2023-03-07T05:17:26.769Z,2.2
2023-03-07T05:19:28.094Z,1.3
2023-03-07T05:21:29.476Z,2.2
2023-03-07T05:23:34.123Z,3
2023-03-07T05:25:35.467Z,0.7
2023-03-07T05:27:36.788Z,1.7
2023-03-07T05:30:00.180Z,2.1
2023-03-07T05:32:01.465Z,1.5
2023-03-07T05:34:02.764Z,1.1
2023-03-07T05:36:07.375Z,1.4
2023-03-07T05:44:12.642Z,1.5
2023-03-07T05:46:14.010Z,3.2
2023-03-07T05:48:15.247Z,2.3
2023-03-07T05:52:21.280Z,1.8
2023-03-07T05:54:22.571Z,0.9
2023-03-07T05:56:23.880Z,1.8
2023-03-07T05:58:25.196Z,1.4
2023-03-07T06:00:26.498Z,3.6
2023-03-07T06:02:27.829Z,0.8
2023-03-07T06:04:32.404Z,0.5
2023-03-07T06:06:33.691Z,0.6
2023-03-07T06:08:35.022Z,1
2023-03-07T06:10:36.361Z,0.8
2023-03-07T06:12:37.748Z,1.5
2023-03-07T06:18:45.051Z,1.2
2023-03-07T06:20:46.358Z,0.7
2023-03-07T06:22:47.728Z,0.5
2023-03-07T06:29:53.903Z,0.7
2023-03-07T06:36:01.308Z,1.5
2023-03-07T06:38:02.660Z,0.5
2023-03-07T06:42:05.341Z,0.8
2023-03-07T06:46:11.418Z,1.1
2023-03-07T06:48:12.687Z,2.1
2023-03-07T06:50:14.196Z,0.8
2023-03-07T06:52:15.356Z,1.4
2023-03-07T06:54:16.658Z,0.8
2023-03-07T06:58:19.188Z,2.6
2023-03-07T07:02:25.290Z,1.1
2023-03-07T07:04:26.378Z,1.2
2023-03-07T07:10:30.289Z,0.1
2023-03-07T07:12:31.566Z,0.4
2023-03-07T07:14:36.246Z,0.9
2023-03-07T07:16:37.528Z,1.5
2023-03-07T07:18:38.759Z,0.7
2023-03-07T07:21:42.375Z,0.4
2023-03-07T07:23:43.680Z,0.9
2023-03-07T07:29:50.813Z,0.7
2023-03-07T07:31:52.237Z,1.7
2023-03-07T07:33:53.458Z,0.9
2023-03-07T07:35:54.864Z,1.3
2023-03-07T07:37:56.194Z,1.1
2023-03-07T07:39:57.449Z,0.5
2023-03-07T07:42:02.233Z,1
2023-03-07T07:44:03.614Z,0.8
2023-03-07T07:50:07.571Z,1.2
2023-03-07T07:52:08.972Z,0.3
2023-03-07T07:56:14.955Z,0.8
2023-03-07T07:58:16.323Z,1
2023-03-07T08:02:18.937Z,0.4
2023-03-07T08:06:21.627Z,1.5
2023-03-07T08:08:22.903Z,0.5
2023-03-07T08:14:30.236Z,0.2
2023-03-07T08:15:32.586Z,1
2023-03-07T08:17:33.801Z,0.8
2023-03-07T08:19:35.094Z,0.1
2023-03-07T08:21:36.374Z,0.6
2023-03-07T08:25:42.260Z,0.5
2023-03-07T08:29:44.820Z,0.7
2023-03-07T08:37:53.361Z,0.6
2023-03-07T08:39:54.637Z,0.6
2023-03-07T08:41:55.894Z,1.1
2023-03-07T08:58:09.747Z,0.2
2023-03-07T09:00:12.707Z,1.6
2023-03-07T09:02:12.485Z,1.1
2023-03-07T09:04:13.776Z,1.3
2023-03-07T09:06:18.376Z,1.1
2023-03-07T09:12:49.924Z,2
2023-03-07T09:14:51.207Z,1.3
2023-03-07T09:16:52.477Z,0.8
2023-03-07T09:18:57.058Z,2.5
2023-03-07T09:20:58.363Z,1.8
2023-03-07T09:25:01.059Z,1
2023-03-07T09:27:02.331Z,1.5
2023-03-07T09:29:05.296Z,1.8
2023-03-07T09:31:06.658Z,1.9
2023-03-07T09:33:11.338Z,3.1
2023-03-07T09:35:12.607Z,3.6
2023-03-07T09:37:13.937Z,2
2023-03-07T09:39:15.302Z,3.5
2023-03-07T09:41:16.612Z,2.3
2023-03-07T09:43:17.893Z,2.8
2023-03-07T09:47:23.768Z,2.3
2023-03-07T09:49:25.059Z,2.7
2023-03-07T09:51:26.315Z,2.8
2023-03-07T09:59:31.525Z,1.8
2023-03-07T10:05:38.736Z,4.4
2023-03-07T10:06:41.034Z,5
2023-03-07T10:08:42.361Z,3.5
2023-03-07T10:10:43.671Z,3
2023-03-07T10:12:45.041Z,3.4
2023-03-07T10:14:49.644Z,3.2
2023-03-07T10:18:52.364Z,2.7
2023-03-07T10:20:53.643Z,2
2023-03-07T10:22:54.951Z,3.6
2023-03-07T10:24:56.268Z,3.7
2023-03-07T10:26:57.575Z,3.7
2023-03-07T10:29:02.184Z,3.3
2023-03-07T10:31:03.515Z,2.6
2023-03-07T10:33:04.786Z,1.4
2023-03-07T10:35:06.113Z,3.5
2023-03-07T10:37:09.405Z,3.1
2023-03-07T10:39:08.705Z,1.9
2023-03-07T10:43:14.677Z,3.5
2023-03-07T10:47:17.369Z,1.8
2023-03-07T10:53:21.329Z,2.1
2023-03-07T10:55:23.730Z,3.6
2023-03-07T11:02:32.210Z,4
2023-03-07T11:04:33.510Z,2.9
2023-03-07T11:06:34.928Z,1.5
2023-03-07T11:08:36.147Z,2.5
2023-03-07T11:10:40.763Z,1.7
2023-03-07T11:12:42.072Z,0.7
2023-03-07T11:14:43.404Z,3.2
2023-03-07T11:16:44.772Z,2.4
2023-03-07T11:18:46.051Z,1.5
2023-03-07T11:20:47.370Z,1.1
2023-03-07T11:24:53.329Z,2.9
2023-03-07T11:26:54.638Z,4
2023-03-07T11:28:55.950Z,1.8
2023-03-07T11:30:57.305Z,1.9
2023-03-07T11:32:58.700Z,1
2023-03-07T11:35:00.049Z,2.2
2023-03-07T11:37:01.378Z,2.2
2023-03-07T11:39:06.014Z,2.8
2023-03-07T11:41:07.344Z,1
2023-03-07T11:43:08.671Z,1.5
2023-03-07T11:45:09.997Z,1.7
2023-03-07T11:47:11.329Z,1.1
2023-03-07T11:49:12.670Z,2.4
2023-03-07T11:51:13.985Z,1.6
2023-03-07T11:53:18.662Z,1.6
2023-03-07T11:58:23.591Z,1.3
2023-03-07T12:00:24.926Z,0.7
2023-03-07T12:02:26.247Z,0.7
2023-03-07T12:04:27.558Z,0.6
2023-03-07T12:06:32.226Z,1.2
2023-03-07T12:08:33.538Z,0.5
2023-03-07T12:10:34.854Z,0.3
2023-03-07T12:12:36.184Z,0.8
2023-03-07T12:14:37.503Z,1.7
2023-03-07T12:16:38.996Z,0.4
2023-03-07T12:18:40.122Z,0.6
2023-03-07T12:20:44.754Z,0.7
2023-03-07T12:22:46.064Z,0.5
2023-03-07T12:24:47.392Z,0.9
2023-03-07T12:26:48.705Z,0.1
2023-03-07T12:32:52.747Z,0.3
2023-03-07T12:34:57.293Z,0.5
2023-03-07T12:36:58.705Z,0.3
2023-03-07T12:39:00.129Z,0.8
2023-03-07T12:41:01.409Z,0.4
2023-03-07T12:43:02.751Z,0.5
2023-03-07T12:45:04.023Z,0.4
2023-03-07T12:49:09.954Z,0.7
2023-03-07T12:55:33.673Z,0.6
2023-03-07T12:57:34.984Z,0.4
2023-03-07T13:03:42.213Z,0.8
2023-03-07T13:05:43.468Z,0.6
2023-03-07T13:07:44.800Z,0.3
2023-03-07T13:09:46.084Z,0.2
2023-03-07T13:11:47.439Z,1
2023-03-07T13:15:53.313Z,0.1
2023-03-07T13:17:54.613Z,0.4
2023-03-07T13:19:55.914Z,0.1
2023-03-07T13:40:12.319Z,0.7
2023-03-07T13:42:13.622Z,0.2
2023-03-07T13:46:19.582Z,2.2
2023-03-07T13:48:20.894Z,0.9
2023-03-07T13:49:24.730Z,0.3
2023-03-07T13:55:27.112Z,1.8
2023-03-07T13:57:31.750Z,1.5
2023-03-07T13:59:33.087Z,1.2
2023-03-07T14:01:34.468Z,0.9
2023-03-07T14:03:35.764Z,0.5
2023-03-07T14:09:39.770Z,1
2023-03-07T14:19:49.625Z,0.1
2023-03-07T14:21:50.929Z,1.4
2023-03-07T14:23:52.251Z,0.5
2023-03-07T14:25:56.869Z,0.9
2023-03-07T14:27:58.228Z,1.1
2023-03-07T14:29:59.568Z,0.4
2023-03-07T14:32:00.922Z,1.5
2023-03-07T14:34:02.174Z,1
2023-03-07T14:36:03.544Z,1
2023-03-07T14:38:04.839Z,0.5
2023-03-07T14:40:09.436Z,0.2
2023-03-07T14:42:10.774Z,0.3
2023-03-07T14:44:12.094Z,1.2
2023-03-07T14:45:14.397Z,0.5
2023-03-07T14:47:15.721Z,0.5
2023-03-07T14:49:17.022Z,0.7
2023-03-07T14:51:18.346Z,0.9
2023-03-07T14:53:23.039Z,1
2023-03-07T14:55:24.382Z,1.3
2023-03-07T14:57:25.644Z,0.2
2023-03-07T14:59:29.421Z,0.3
2023-03-07T15:01:28.266Z,0.3
2023-03-07T15:03:29.551Z,0.1
2023-03-07T15:05:30.867Z,0.7
2023-03-07T15:07:35.724Z,0.2
2023-03-07T15:09:37.036Z,1.1
2023-03-07T15:11:38.441Z,0.9
2023-03-07T15:13:39.668Z,1.5
2023-03-07T15:15:40.955Z,0.3
2023-03-07T15:17:42.221Z,0.5
2023-03-07T15:19:47.078Z,1.7
2023-03-07T15:21:49.758Z,0.5
2023-03-07T15:23:50.933Z,1.2
2023-03-07T15:25:52.314Z,0.6
2023-03-07T15:27:53.679Z,1.4
2023-03-07T15:38:03.500Z,1.1
2023-03-07T15:40:04.757Z,1.2
2023-03-07T15:45:09.656Z,0.9
2023-03-07T15:47:10.920Z,0.4
2023-03-07T15:55:19.573Z,0.5
2023-03-07T15:57:20.906Z,0.4
2023-03-07T15:59:22.237Z,1.1
2023-03-07T16:01:23.671Z,1.1
2023-03-07T16:05:29.297Z,1.7
2023-03-07T16:07:30.541Z,1.1
2023-03-07T16:09:31.918Z,0.9
2023-03-07T16:11:33.166Z,1
2023-03-07T16:17:40.462Z,1.3
2023-03-07T16:19:41.828Z,0.9
2023-03-07T16:21:43.195Z,1.1
2023-03-07T16:23:44.544Z,1.4
2023-03-07T16:25:45.954Z,0.8
2023-03-07T16:27:47.280Z,0.6
2023-03-07T16:29:48.646Z,0.5
2023-03-07T16:31:53.291Z,1.3
2023-03-07T16:33:54.515Z,0.6
2023-03-07T16:35:55.889Z,0.6
2023-03-07T16:38:18.948Z,1.3
2023-03-07T16:40:20.306Z,1
2023-03-07T16:42:21.534Z,1
2023-03-07T16:44:26.197Z,1.6
2023-03-07T16:46:27.468Z,0.6
2023-03-07T16:48:28.681Z,0.6
2023-03-07T16:50:30.090Z,0.9
2023-03-07T16:52:31.439Z,0.5
2023-03-07T16:54:32.796Z,1.2
2023-03-07T16:56:34.144Z,1.1
2023-03-07T16:58:38.811Z,1.1
2023-03-07T17:00:40.249Z,3.5
2023-03-07T17:02:41.540Z,1.1
2023-03-07T17:04:44.368Z,2
2023-03-07T17:06:44.229Z,1.3
2023-03-07T17:08:45.567Z,0.7
2023-03-07T17:10:46.857Z,1.2
2023-03-07T17:12:51.577Z,2.3
2023-03-07T17:14:52.844Z,0.7
2023-03-07T17:16:54.199Z,1.4
2023-03-07T17:18:55.523Z,0.5
2023-03-07T17:20:56.799Z,1.1
2023-03-07T17:22:58.148Z,1.3
2023-03-07T17:24:59.504Z,1.3
2023-03-07T17:27:04.314Z,1
2023-03-07T17:29:05.612Z,1.6
2023-03-07T17:32:09.286Z,1.3
2023-03-07T17:34:10.505Z,1.3
2023-03-07T17:36:11.855Z,2.1
2023-03-07T17:38:13.112Z,1.5
2023-03-07T17:40:17.751Z,1.8
2023-03-07T17:42:19.000Z,1.7
2023-03-07T17:44:20.266Z,1.5
2023-03-07T17:46:21.666Z,1.9
2023-03-07T17:48:22.938Z,2.7
2023-03-07T17:50:24.178Z,1.8
2023-03-07T17:52:25.525Z,2.2
2023-03-07T17:54:30.209Z,1.3
2023-03-07T17:56:31.573Z,1.1
2023-03-07T17:58:32.831Z,0.6
2023-03-07T18:00:34.058Z,1.4
2023-03-07T18:02:35.445Z,0.6
2023-03-07T18:08:42.895Z,1.3
2023-03-07T18:10:44.235Z,1.7
2023-03-07T18:12:45.578Z,1.1
2023-03-07T18:16:48.275Z,2.3
2023-03-07T18:18:58.752Z,0.9
2023-03-07T18:20:50.856Z,2.4
2023-03-07T18:22:55.620Z,1.2
2023-03-07T18:24:56.958Z,1.6
2023-03-07T18:26:58.205Z,1.8
2023-03-07T18:30:01.929Z,1
2023-03-07T18:32:03.335Z,1.4
2023-03-07T18:34:04.520Z,3.5
2023-03-07T18:36:09.293Z,2.3
2023-03-07T18:38:10.572Z,1.9
2023-03-07T18:40:11.901Z,1.2
2023-03-07T18:42:13.234Z,2.1
2023-03-07T18:44:14.572Z,2
2023-03-07T18:46:15.903Z,1.2
2023-03-07T18:48:17.252Z,2
2023-03-07T18:50:21.854Z,1
2023-03-07T18:52:23.180Z,2.1
2023-03-07T18:54:24.519Z,1.6
2023-03-07T18:58:27.191Z,1.3
2023-03-07T19:02:29.857Z,1.6
2023-03-07T19:06:35.925Z,2.3
2023-03-07T19:14:41.746Z,0.8
2023-03-07T19:16:43.098Z,1
2023-03-07T19:18:47.816Z,0.9
2023-03-07T19:20:49.144Z,1.1
2023-03-07T19:22:50.443Z,1
2023-03-07T19:23:52.815Z,0.5
2023-03-07T19:25:54.154Z,1
2023-03-07T19:29:56.822Z,0.9
2023-03-07T19:32:01.659Z,0.9
2023-03-07T19:34:02.879Z,1.3
2023-03-07T19:36:04.232Z,1.9
2023-03-07T19:38:05.500Z,0.5
2023-03-07T19:40:06.810Z,1.2
2023-03-07T19:42:08.130Z,1
2023-03-07T19:44:09.456Z,1
2023-03-07T19:46:14.270Z,1.2
2023-03-07T19:48:15.506Z,0.6
2023-03-07T19:50:16.882Z,0.8
2023-03-07T19:52:18.136Z,0.9
2023-03-07T19:54:19.453Z,1.1
2023-03-07T19:56:20.777Z,1.5
2023-03-07T19:58:22.085Z,0.8
2023-03-07T20:00:26.829Z,0.5
2023-03-07T20:02:28.096Z,1
2023-03-07T20:04:29.401Z,1.7
2023-03-07T20:06:30.752Z,1.1
2023-03-07T20:08:32.055Z,0.5
2023-03-07T20:10:33.382Z,0.4
2023-03-07T20:12:34.665Z,0.8
2023-03-07T20:14:39.400Z,1.1
2023-03-07T20:18:42.091Z,1.1
2023-03-07T20:21:03.082Z,1.7
2023-03-07T20:23:04.418Z,1.9
2023-03-07T20:25:05.726Z,1.8
2023-03-07T20:29:11.748Z,2.1
2023-03-07T20:31:13.229Z,1.1
2023-03-07T20:33:14.350Z,2.1
2023-03-07T20:35:15.680Z,1.5
2023-03-07T20:47:26.945Z,1.7
2023-03-07T21:05:42.097Z,2.6
2023-03-07T21:07:43.410Z,3.2
2023-03-07T21:13:52.262Z,3.4
2023-03-07T21:14:54.619Z,1.2
2023-03-07T21:16:55.910Z,2.9
2023-03-07T21:18:57.944Z,3.2
2023-03-07T21:20:58.523Z,3.5
2023-03-07T21:23:03.225Z,2.2
2023-03-07T21:27:05.813Z,2.4
2023-03-07T21:29:07.121Z,1.6
2023-03-07T21:35:11.030Z,1.7
2023-03-07T21:37:15.849Z,4.4
2023-03-07T21:39:17.032Z,2.2
2023-03-07T21:41:18.324Z,2.8
2023-03-07T21:43:19.632Z,2.1
2023-03-07T21:45:20.979Z,3.7
2023-03-07T21:47:22.272Z,4
2023-03-07T21:49:23.569Z,3.1
2023-03-07T21:51:28.292Z,3.6
2023-03-07T21:53:29.572Z,2.9
2023-03-07T21:57:32.178Z,4.2
2023-03-07T21:59:33.487Z,3.4
2023-03-07T22:01:34.849Z,3.5
2023-03-07T22:03:36.083Z,2.1
2023-03-07T22:05:41.456Z,2.9
2023-03-07T22:07:42.754Z,2.6
2023-03-07T22:09:44.050Z,3.7
2023-03-07T22:10:46.396Z,3.4
2023-03-07T22:12:47.683Z,3.1
2023-03-07T22:14:48.942Z,5.1
2023-03-07T22:16:50.275Z,2.7
2023-03-07T22:18:54.958Z,3.6
2023-03-07T22:20:56.260Z,1.9
2023-03-07T22:22:57.533Z,4
2023-03-07T22:24:58.825Z,2.2
2023-03-07T22:31:02.692Z,3.1
2023-03-07T22:35:08.667Z,4.8
2023-03-07T22:37:09.985Z,2.8
2023-03-07T22:39:11.258Z,1.8
2023-03-07T22:41:12.547Z,1.6
2023-03-07T22:45:15.146Z,2.6
2023-03-07T22:49:21.130Z,3.8
2023-03-07T23:05:34.846Z,3.2
2023-03-07T23:20:49.586Z,1.9
2023-03-07T23:24:52.179Z,2.7
2023-03-07T23:26:53.432Z,1.6
2023-03-07T23:28:58.142Z,2
2023-03-07T23:30:59.444Z,2.6
2023-03-07T23:33:00.724Z,1.8
2023-03-07T23:35:02.008Z,1.4
2023-03-07T23:37:03.308Z,2.3
2023-03-07T23:39:04.591Z,1.5
2023-03-07T23:43:10.606Z,2.9
2023-03-07T23:45:11.895Z,2.4
2023-03-07T23:49:14.473Z,2.5
2023-03-07T23:55:18.352Z,3.2
2023-03-07T23:57:23.087Z,3.1
2023-03-07T23:59:24.329Z,1.4
